createdAt,value
2023-04-16T00:00:08.318Z,102334.19
2023-04-16T00:02:34.882Z,102335.81
2023-04-16T00:05:01.645Z,102325.59
2023-04-16T00:07:28.088Z,102335.13
2023-04-16T00:09:54.459Z,102326.56
2023-04-16T00:12:20.825Z,102329.97
2023-04-16T00:14:47.892Z,102333.34
2023-04-16T00:17:14.357Z,102332.56
2023-04-16T00:19:40.949Z,102335.81
2023-04-16T00:22:07.334Z,102337.47
2023-04-16T00:24:33.758Z,102327.25
2023-04-16T00:27:01.543Z,102329.03
2023-04-16T00:29:28.723Z,102327.25
2023-04-16T00:31:55.321Z,102330.66
2023-04-16T00:34:21.741Z,102332.56
2023-04-16T00:36:48.126Z,102335.00
2023-04-16T00:39:14.489Z,102330.66
2023-04-16T00:41:41.193Z,102330.66
2023-04-16T00:44:07.606Z,102330.66
2023-04-16T00:46:35.483Z,102343.47
2023-04-16T00:49:02.896Z,102338.41
2023-04-16T00:51:29.820Z,102340.88
2023-04-16T00:53:57.728Z,102338.53
2023-04-16T00:56:25.525Z,102335.81
2023-04-16T00:58:52.089Z,102335.13
2023-04-16T01:01:18.547Z,102339.50
2023-04-16T01:03:47.331Z,102341.25
2023-04-16T01:06:14.806Z,102336.19
2023-04-16T01:08:41.234Z,102343.03
2023-04-16T01:11:07.833Z,102332.81
2023-04-16T01:13:39.040Z,102339.75
2023-04-16T01:16:10.344Z,102333.63
2023-04-16T01:18:37.838Z,102338.78
2023-04-16T01:21:04.960Z,102340.69
2023-04-16T01:23:31.579Z,102333.06
2023-04-16T01:25:58.107Z,102334.00
2023-04-16T01:28:24.841Z,102338.34
2023-04-16T01:30:51.271Z,102337.41
2023-04-16T01:33:18.701Z,102343.41
2023-04-16T01:35:45.250Z,102342.47
2023-04-16T01:38:12.130Z,102350.22
2023-04-16T01:40:38.857Z,102340.56
2023-04-16T01:43:08.625Z,102338.91
2023-04-16T01:45:35.537Z,102343.16
2023-04-16T01:48:03.335Z,102344.09
2023-04-16T01:50:31.879Z,102350.09
2023-04-16T01:52:58.359Z,102343.16
2023-04-16T01:55:24.875Z,102343.16
2023-04-16T01:57:51.282Z,102346.69
2023-04-16T02:00:17.781Z,102348.34
2023-04-16T02:02:44.425Z,102343.97
2023-04-16T02:05:11.327Z,102344.81
2023-04-16T02:07:38.068Z,102343.84
2023-04-16T02:10:05.370Z,102349.00
2023-04-16T02:12:34.461Z,102341.97
2023-04-16T02:15:01.007Z,102341.13
2023-04-16T02:17:27.605Z,102343.72
2023-04-16T02:19:54.043Z,102346.16
2023-04-16T02:22:20.557Z,102341.00
2023-04-16T02:24:46.999Z,102345.25
2023-04-16T02:27:13.397Z,102341.81
2023-04-16T02:29:40.480Z,102340.06
2023-04-16T02:32:07.054Z,102339.09
2023-04-16T02:34:34.868Z,102340.75
2023-04-16T02:37:01.228Z,102334.63
2023-04-16T02:39:27.624Z,102335.44
2023-04-16T02:41:54.341Z,102345.66
2023-04-16T02:44:20.765Z,102343.06
2023-04-16T02:46:47.113Z,102344.72
2023-04-16T02:49:13.490Z,102343.75
2023-04-16T02:51:39.970Z,102345.41
2023-04-16T02:54:06.327Z,102340.09
2023-04-16T02:56:32.700Z,102339.13
2023-04-16T02:58:59.067Z,102345.03
2023-04-16T03:01:25.478Z,102345.16
2023-04-16T03:03:51.926Z,102339.13
2023-04-16T03:06:18.281Z,102345.16
2023-04-16T03:08:44.675Z,102346.91
2023-04-16T03:11:11.400Z,102342.56
2023-04-16T03:13:37.776Z,102347.06
2023-04-16T03:16:04.358Z,102355.50
2023-04-16T03:18:30.989Z,102357.97
2023-04-16T03:20:57.482Z,102357.97
2023-04-16T03:23:23.916Z,102363.16
2023-04-16T03:25:50.394Z,102363.97
2023-04-16T03:28:16.749Z,102367.34
2023-04-16T03:30:43.189Z,102374.31
2023-04-16T03:33:09.583Z,102366.69
2023-04-16T03:35:36.067Z,102371.03
2023-04-16T03:38:02.451Z,102366.00
2023-04-16T03:40:28.982Z,102362.59
2023-04-16T03:42:55.653Z,102369.38
2023-04-16T03:45:22.118Z,102364.22
2023-04-16T03:47:52.531Z,102372.94
2023-04-16T03:50:19.759Z,102381.53
2023-04-16T03:52:46.972Z,102371.97
2023-04-16T03:55:13.891Z,102366.94
2023-04-16T03:57:41.035Z,102372.09
2023-04-16T04:00:08.800Z,102368.72
2023-04-16T04:02:35.249Z,102371.28
2023-04-16T04:05:01.866Z,102371.28
2023-04-16T04:07:28.301Z,102373.75
2023-04-16T04:09:54.716Z,102376.34
2023-04-16T04:12:21.136Z,102371.28
2023-04-16T04:14:47.526Z,102373.88
2023-04-16T04:17:13.935Z,102371.28
2023-04-16T04:19:47.107Z,102378.13
2023-04-16T04:22:17.320Z,102375.38
2023-04-16T04:24:43.719Z,102378.13
2023-04-16T04:27:10.406Z,102378.94
2023-04-16T04:29:36.770Z,102379.75
2023-04-16T04:32:03.307Z,102390.09
2023-04-16T04:34:30.106Z,102396.09
2023-04-16T04:36:56.698Z,102394.47
2023-04-16T04:39:23.211Z,102386.69
2023-04-16T04:41:49.651Z,102401.56
2023-04-16T04:44:16.035Z,102398.13
2023-04-16T04:46:42.472Z,102406.72
2023-04-16T04:49:09.067Z,102407.53
2023-04-16T04:51:35.796Z,102417.09
2023-04-16T04:54:02.155Z,102411.06
2023-04-16T04:56:28.566Z,102411.06
2023-04-16T04:58:54.956Z,102410.13
2023-04-16T05:01:21.363Z,102417.09
2023-04-16T05:03:47.844Z,102412.72
2023-04-16T05:06:14.355Z,102405.88
2023-04-16T05:08:40.758Z,102412.72
2023-04-16T05:11:07.194Z,102416.25
2023-04-16T05:13:33.578Z,102413.66
2023-04-16T05:15:59.986Z,102415.31
2023-04-16T05:18:26.723Z,102400.84
2023-04-16T05:20:53.239Z,102416.25
2023-04-16T05:23:19.679Z,102409.19
2023-04-16T05:25:46.103Z,102416.97
2023-04-16T05:28:12.521Z,102409.75
2023-04-16T05:30:38.978Z,102411.38
2023-04-16T05:33:05.785Z,102418.19
2023-04-16T05:35:32.163Z,102419.97
2023-04-16T05:37:58.634Z,102418.06
2023-04-16T05:40:25.317Z,102422.44
2023-04-16T05:42:51.820Z,102423.38
2023-04-16T05:45:18.226Z,102425.03
2023-04-16T05:47:44.682Z,102424.91
2023-04-16T05:50:11.228Z,102424.91
2023-04-16T05:52:38.540Z,102432.38
2023-04-16T05:55:05.844Z,102435.69
2023-04-16T05:57:33.275Z,102440.03
2023-04-16T05:59:59.681Z,102431.44
2023-04-16T06:02:26.381Z,102440.88
2023-04-16T06:04:52.883Z,102439.91
2023-04-16T06:07:19.331Z,102441.56
2023-04-16T06:09:45.781Z,102444.03
2023-04-16T06:12:12.515Z,102437.91
2023-04-16T06:14:38.941Z,102451.66
2023-04-16T06:17:05.309Z,102446.34
2023-04-16T06:19:31.776Z,102448.94
2023-04-16T06:21:58.242Z,102452.22
2023-04-16T06:24:24.721Z,102452.09
2023-04-16T06:26:51.199Z,102456.34
2023-04-16T06:29:17.609Z,102464.09
2023-04-16T06:31:44.061Z,102462.31
2023-04-16T06:34:10.610Z,102466.47
2023-04-16T06:36:37.659Z,102468.09
2023-04-16T06:39:04.273Z,102467.03
2023-04-16T06:41:30.759Z,102467.59
2023-04-16T06:43:57.225Z,102476.19
2023-04-16T06:46:23.650Z,102471.13
2023-04-16T06:48:50.130Z,102475.38
2023-04-16T06:51:16.586Z,102477.00
2023-04-16T06:53:43.020Z,102475.22
2023-04-16T06:56:09.403Z,102485.47
2023-04-16T06:58:36.326Z,102486.16
2023-04-16T07:01:02.891Z,102481.69
2023-04-16T07:03:29.507Z,102488.50
2023-04-16T07:05:56.688Z,102485.66
2023-04-16T07:08:23.088Z,102490.69
2023-04-16T07:10:49.539Z,102493.03
2023-04-16T07:13:16.032Z,102496.44
2023-04-16T07:15:42.436Z,102497.16
2023-04-16T07:18:09.457Z,102500.44
2023-04-16T07:20:36.410Z,102495.41
2023-04-16T07:23:02.857Z,102510.16
2023-04-16T07:25:29.293Z,102510.97
2023-04-16T07:27:55.687Z,102510.16
2023-04-16T07:30:22.109Z,102510.28
2023-04-16T07:32:48.680Z,102519.00
2023-04-16T07:35:15.133Z,102513.81
2023-04-16T07:37:41.557Z,102509.31
2023-04-16T07:40:08.573Z,102511.66
2023-04-16T07:42:35.590Z,102517.78
2023-04-16T07:45:02.044Z,102514.94
2023-04-16T07:47:28.517Z,102526.38
2023-04-16T07:49:54.988Z,102525.28
2023-04-16T07:52:21.449Z,102522.69
2023-04-16T07:54:47.826Z,102537.19
2023-04-16T07:57:14.260Z,102534.59
2023-04-16T07:59:40.910Z,102545.78
2023-04-16T08:02:09.889Z,102541.44
2023-04-16T08:04:36.567Z,102539.66
2023-04-16T08:07:03.091Z,102548.09
2023-04-16T08:09:29.641Z,102543.06
2023-04-16T08:11:56.295Z,102550.56
2023-04-16T08:14:23.151Z,102556.31
2023-04-16T08:16:49.769Z,102550.44
2023-04-16T08:19:16.160Z,102557.97
2023-04-16T08:21:42.753Z,102559.38
2023-04-16T08:24:09.148Z,102565.09
2023-04-16T08:26:35.631Z,102555.53
2023-04-16T08:29:02.148Z,102568.13
2023-04-16T08:31:30.475Z,102567.06
2023-04-16T08:33:57.064Z,102568.13
2023-04-16T08:36:23.491Z,102579.06
2023-04-16T08:38:50.621Z,102566.75
2023-04-16T08:41:17.212Z,102557.66
2023-04-16T08:43:45.419Z,102570.91
2023-04-16T08:46:12.605Z,102573.25
2023-04-16T08:48:42.078Z,102571.91
2023-04-16T08:51:10.965Z,102578.06
2023-04-16T08:53:52.012Z,102582.84
2023-04-16T08:56:21.124Z,102581.19
2023-04-16T08:58:50.012Z,102582.28
2023-04-16T09:01:18.261Z,102585.03
2023-04-16T09:03:47.920Z,102578.63
2023-04-16T09:06:16.329Z,102578.78
2023-04-16T09:08:46.530Z,102574.41
2023-04-16T09:11:21.985Z,102586.72
2023-04-16T09:13:48.346Z,102577.56
2023-04-16T09:16:15.345Z,102583.03
2023-04-16T09:18:42.093Z,102578.13
2023-04-16T09:21:10.541Z,102589.06
2023-04-16T09:23:38.733Z,102582.28
2023-04-16T09:26:06.047Z,102583.63
2023-04-16T09:28:39.347Z,102588.56
2023-04-16T09:31:16.359Z,102592.25
2023-04-16T09:33:44.060Z,102588.16
2023-04-16T09:36:11.163Z,102594.72
2023-04-16T09:38:51.840Z,102596.50
2023-04-16T09:41:19.007Z,102601.44
2023-04-16T09:44:05.053Z,102609.63
2023-04-16T09:46:34.240Z,102603.22
2023-04-16T09:49:17.169Z,102610.00
2023-04-16T09:51:45.238Z,102612.47
2023-04-16T09:54:11.861Z,102614.78
2023-04-16T09:56:46.318Z,102611.13
2023-04-16T09:59:25.266Z,102619.97
2023-04-16T10:01:57.342Z,102621.09
2023-04-16T10:04:51.283Z,102617.13
2023-04-16T10:07:19.326Z,102622.59
2023-04-16T10:09:48.486Z,102617.94
2023-04-16T10:12:15.998Z,102619.34
2023-04-16T10:14:42.765Z,102624.66
2023-04-16T10:17:09.781Z,102619.75
2023-04-16T10:19:36.569Z,102626.19
2023-04-16T10:22:03.875Z,102620.41
2023-04-16T10:24:31.898Z,102630.94
2023-04-16T10:26:59.193Z,102627.53
2023-04-16T10:29:27.848Z,102627.13
2023-04-16T10:31:55.932Z,102625.09
2023-04-16T10:34:24.301Z,102627.81
2023-04-16T10:36:52.905Z,102629.59
2023-04-16T10:39:22.684Z,102625.34
2023-04-16T10:41:50.548Z,102624.97
2023-04-16T10:44:20.030Z,102626.50
2023-04-16T10:46:50.859Z,102629.09
2023-04-16T10:49:24.604Z,102633.44
2023-04-16T10:51:55.914Z,102634.81
2023-04-16T10:54:32.448Z,102633.19
2023-04-16T10:57:04.455Z,102632.63
2023-04-16T10:59:34.795Z,102630.16
2023-04-16T11:02:15.086Z,102633.28
2023-04-16T11:04:49.334Z,102640.81
2023-04-16T11:07:20.396Z,102630.56
2023-04-16T11:09:59.756Z,102639.47
2023-04-16T11:12:29.646Z,102641.81
2023-04-16T11:15:07.134Z,102630.16
2023-04-16T11:17:38.792Z,102633.75
2023-04-16T11:20:19.023Z,102636.88
2023-04-16T11:22:48.422Z,102634.25
2023-04-16T11:25:20.899Z,102640.41
2023-04-16T11:27:47.338Z,102634.81
2023-04-16T11:30:14.177Z,102640.53
2023-04-16T11:32:40.909Z,102642.47
2023-04-16T11:35:18.643Z,102642.47
2023-04-16T11:37:48.311Z,102643.84
2023-04-16T11:40:14.803Z,102641.38
2023-04-16T11:42:42.573Z,102643.16
2023-04-16T11:45:11.249Z,102641.53
2023-04-16T11:47:52.296Z,102644.38
2023-04-16T11:50:27.721Z,102643.41
2023-04-16T11:52:56.859Z,102644.50
2023-04-16T11:55:24.158Z,102639.03
2023-04-16T11:57:51.820Z,102638.31
2023-04-16T12:00:19.034Z,102646.00
2023-04-16T12:02:52.799Z,102648.19
2023-04-16T12:05:27.918Z,102656.09
2023-04-16T12:07:55.272Z,102651.16
2023-04-16T12:10:21.791Z,102660.06
2023-04-16T12:12:48.391Z,102646.22
2023-04-16T12:15:14.822Z,102647.44
2023-04-16T12:17:41.342Z,102657.03
2023-04-16T12:20:13.066Z,102664.28
2023-04-16T12:22:43.742Z,102665.09
2023-04-16T12:25:18.188Z,102657.84
2023-04-16T12:27:53.680Z,102660.84
2023-04-16T12:30:22.867Z,102663.59
2023-04-16T12:32:52.259Z,102665.38
2023-04-16T12:35:33.835Z,102665.94
2023-04-16T12:38:00.942Z,102665.56
2023-04-16T12:40:27.554Z,102670.34
2023-04-16T12:42:54.866Z,102668.44
2023-04-16T12:45:21.907Z,102674.03
2023-04-16T12:47:48.436Z,102666.63
2023-04-16T12:50:14.932Z,102661.00
2023-04-16T12:52:41.478Z,102666.59
2023-04-16T12:55:08.254Z,102666.44
2023-04-16T12:57:34.644Z,102669.84
2023-04-16T13:00:01.161Z,102665.72
2023-04-16T13:02:27.875Z,102668.97
2023-04-16T13:04:54.863Z,102665.06
2023-04-16T13:07:21.482Z,102673.97
2023-04-16T13:09:47.946Z,102668.47
2023-04-16T13:12:14.358Z,102663.44
2023-04-16T13:14:42.048Z,102660.28
2023-04-16T13:17:09.186Z,102664.13
2023-04-16T13:19:35.882Z,102668.59
2023-04-16T13:22:02.319Z,102664.09
2023-04-16T13:24:30.518Z,102659.69
2023-04-16T13:26:56.916Z,102661.97
2023-04-16T13:29:23.372Z,102665.25
2023-04-16T13:31:49.995Z,102666.63
2023-04-16T13:34:16.480Z,102659.84
2023-04-16T13:36:43.036Z,102660.00
2023-04-16T13:39:12.393Z,102662.69
2023-04-16T13:41:39.014Z,102668.47
2023-04-16T13:44:05.707Z,102663.41
2023-04-16T13:46:32.423Z,102670.53
2023-04-16T13:48:58.908Z,102664.66
2023-04-16T13:51:25.343Z,102664.13
2023-04-16T13:53:51.758Z,102664.94
2023-04-16T13:56:18.148Z,102663.41
2023-04-16T13:58:44.510Z,102661.84
2023-04-16T14:01:11.470Z,102655.97
2023-04-16T14:03:39.033Z,102658.34
2023-04-16T14:06:05.578Z,102657.16
2023-04-16T14:08:32.337Z,102652.97
2023-04-16T14:10:58.891Z,102662.19
2023-04-16T14:13:25.686Z,102658.28
2023-04-16T14:15:55.657Z,102661.53
2023-04-16T14:18:22.187Z,102656.34
2023-04-16T14:20:49.643Z,102656.47
2023-04-16T14:23:16.066Z,102652.38
2023-04-16T14:25:42.490Z,102657.28
2023-04-16T14:28:09.345Z,102652.13
2023-04-16T14:30:35.765Z,102654.50
2023-04-16T14:33:05.732Z,102654.50
2023-04-16T14:35:33.584Z,102654.16
2023-04-16T14:38:01.236Z,102666.00
2023-04-16T14:40:27.753Z,102661.47
2023-04-16T14:42:54.462Z,102657.00
2023-04-16T14:45:21.127Z,102665.78
2023-04-16T14:47:48.165Z,102655.66
2023-04-16T14:50:15.526Z,102650.97
2023-04-16T14:52:42.115Z,102652.84
2023-04-16T14:55:08.696Z,102645.47
2023-04-16T14:57:35.374Z,102645.47
2023-04-16T15:00:02.188Z,102650.53
2023-04-16T15:02:29.040Z,102650.81
2023-04-16T15:04:55.533Z,102652.47
2023-04-16T15:07:22.071Z,102643.66
2023-04-16T15:09:48.472Z,102644.47
2023-04-16T15:12:16.199Z,102643.16
2023-04-16T15:14:43.355Z,102652.59
2023-04-16T15:17:09.994Z,102648.38
2023-04-16T15:19:36.694Z,102653.00
2023-04-16T15:22:03.145Z,102653.47
2023-04-16T15:24:29.589Z,102651.19
2023-04-16T15:26:56.316Z,102651.00
2023-04-16T15:29:22.690Z,102647.84
2023-04-16T15:31:49.160Z,102649.88
2023-04-16T15:34:15.769Z,102654.16
2023-04-16T15:36:42.220Z,102651.03
2023-04-16T15:39:09.554Z,102655.94
2023-04-16T15:41:46.935Z,102652.53
2023-04-16T15:44:23.805Z,102649.47
2023-04-16T15:46:50.362Z,102646.63
2023-04-16T15:49:16.858Z,102649.16
2023-04-16T15:51:43.316Z,102650.13
2023-04-16T15:54:09.903Z,102648.97
2023-04-16T15:56:36.473Z,102655.31
2023-04-16T15:59:03.819Z,102650.34
2023-04-16T16:01:31.077Z,102648.81
2023-04-16T16:03:57.721Z,102648.53
2023-04-16T16:06:25.070Z,102649.47
2023-04-16T16:08:51.644Z,102652.50
2023-04-16T16:11:18.062Z,102654.44
2023-04-16T16:13:44.456Z,102649.38
2023-04-16T16:16:11.059Z,102648.97
2023-04-16T16:18:37.677Z,102657.28
2023-04-16T16:21:04.148Z,102651.81
2023-04-16T16:23:30.761Z,102652.09
2023-04-16T16:26:00.230Z,102656.25
2023-04-16T16:28:27.131Z,102654.25
2023-04-16T16:30:55.471Z,102656.84
2023-04-16T16:33:22.373Z,102650.00
2023-04-16T16:35:48.937Z,102648.22
2023-04-16T16:38:15.758Z,102645.38
2023-04-16T16:40:42.162Z,102639.91
2023-04-16T16:43:08.591Z,102646.38
2023-04-16T16:45:35.298Z,102652.38
2023-04-16T16:48:03.484Z,102657.59
2023-04-16T16:50:32.826Z,102658.69
2023-04-16T16:53:00.037Z,102655.47
2023-04-16T16:55:26.735Z,102664.91
2023-04-16T16:57:53.202Z,102665.19
2023-04-16T17:00:21.428Z,102666.97
2023-04-16T17:02:51.062Z,102669.69
2023-04-16T17:05:17.919Z,102661.34
2023-04-16T17:07:44.332Z,102677.22
2023-04-16T17:10:13.027Z,102675.25
2023-04-16T17:12:39.719Z,102678.13
2023-04-16T17:15:06.884Z,102675.34
2023-04-16T17:17:33.512Z,102682.31
2023-04-16T17:20:01.030Z,102682.44
2023-04-16T17:22:27.537Z,102686.84
2023-04-16T17:24:54.313Z,102682.72
2023-04-16T17:27:20.935Z,102693.78
2023-04-16T17:29:47.302Z,102682.44
2023-04-16T17:32:13.724Z,102691.59
2023-04-16T17:34:40.964Z,102699.53
2023-04-16T17:37:07.359Z,102697.63
2023-04-16T17:39:33.941Z,102702.94
2023-04-16T17:42:02.920Z,102701.56
2023-04-16T17:44:29.302Z,102709.03
2023-04-16T17:46:55.860Z,102711.63
2023-04-16T17:49:22.314Z,102713.25
2023-04-16T17:51:49.084Z,102710.88
2023-04-16T17:54:15.524Z,102718.78
2023-04-16T17:56:41.988Z,102712.09
2023-04-16T17:59:08.398Z,102717.94
2023-04-16T18:01:34.899Z,102717.38
2023-04-16T18:04:01.587Z,102721.72
2023-04-16T18:06:28.255Z,102726.09
2023-04-16T18:08:54.620Z,102720.59
2023-04-16T18:11:21.099Z,102728.44
2023-04-16T18:13:47.553Z,102727.88
2023-04-16T18:16:17.316Z,102730.59
2023-04-16T18:18:44.648Z,102730.59
2023-04-16T18:21:11.378Z,102740.72
2023-04-16T18:23:37.817Z,102731.66
2023-04-16T18:26:04.274Z,102731.09
2023-04-16T18:28:30.678Z,102734.19
2023-04-16T18:30:58.971Z,102740.56
2023-04-16T18:33:52.664Z,102744.31
2023-04-16T18:36:12.145Z,102745.13
2023-04-16T18:38:49.438Z,102745.97
2023-04-16T18:41:23.881Z,102748.09
2023-04-16T18:43:50.572Z,102754.97
2023-04-16T18:46:17.270Z,102755.59
2023-04-16T18:48:47.069Z,102750.78
2023-04-16T18:51:15.914Z,102757.50
2023-04-16T18:53:45.229Z,102757.38
2023-04-16T18:56:11.784Z,102765.03
2023-04-16T18:58:38.271Z,102765.84
2023-04-16T19:01:07.954Z,102773.97
2023-04-16T19:03:34.706Z,102772.59
2023-04-16T19:06:01.450Z,102778.97
2023-04-16T19:08:28.097Z,102764.25
2023-04-16T19:10:54.456Z,102771.06
2023-04-16T19:13:21.054Z,102772.97
2023-04-16T19:15:47.747Z,102777.81
2023-04-16T19:18:14.157Z,102773.22
2023-04-16T19:20:40.640Z,102786.16
2023-04-16T19:23:08.938Z,102785.47
2023-04-16T19:25:36.472Z,102773.31
2023-04-16T19:28:03.780Z,102774.13
2023-04-16T19:30:30.634Z,102772.63
2023-04-16T19:32:57.253Z,102769.22
2023-04-16T19:35:23.839Z,102768.13
2023-04-16T19:37:50.486Z,102768.97
2023-04-16T19:40:16.900Z,102774.13
2023-04-16T19:42:45.213Z,102768.25
2023-04-16T19:45:11.759Z,102770.03
2023-04-16T19:47:38.279Z,102776.16
2023-04-16T19:50:05.033Z,102774.66
2023-04-16T19:52:37.184Z,102770.03
2023-04-16T19:55:03.728Z,102777.69
2023-04-16T19:57:30.175Z,102782.75
2023-04-16T19:59:57.053Z,102775.09
2023-04-16T20:02:23.516Z,102779.44
2023-04-16T20:04:50.710Z,102774.53
2023-04-16T20:07:17.495Z,102780.88
2023-04-16T20:09:43.946Z,102780.56
2023-04-16T20:12:10.395Z,102784.19
2023-04-16T20:14:36.747Z,102794.44
2023-04-16T20:17:03.531Z,102793.63
2023-04-16T20:19:31.774Z,102791.28
2023-04-16T20:21:58.388Z,102789.50
2023-04-16T20:24:26.532Z,102786.91
2023-04-16T20:26:52.929Z,102784.81
2023-04-16T20:29:19.393Z,102787.75
2023-04-16T20:31:46.141Z,102785.38
2023-04-16T20:34:12.805Z,102786.44
2023-04-16T20:36:39.208Z,102787.13
2023-04-16T20:39:07.205Z,102780.91
2023-04-16T20:41:33.955Z,102781.72
2023-04-16T20:44:05.301Z,102779.25
2023-04-16T20:46:33.972Z,102780.19
2023-04-16T20:49:01.238Z,102771.34
2023-04-16T20:51:27.653Z,102770.66
2023-04-16T20:53:54.097Z,102774.34
2023-04-16T20:56:20.522Z,102772.22
2023-04-16T20:58:46.971Z,102770.44
2023-04-16T21:01:13.520Z,102769.00
2023-04-16T21:03:40.778Z,102770.66
2023-04-16T21:06:07.355Z,102763.72
2023-04-16T21:08:33.908Z,102772.56
2023-04-16T21:11:00.524Z,102772.09
2023-04-16T21:13:26.897Z,102767.84
2023-04-16T21:15:53.365Z,102771.88
2023-04-16T21:18:19.771Z,102767.97
2023-04-16T21:20:46.284Z,102765.16
2023-04-16T21:23:12.905Z,102765.84
2023-04-16T21:25:39.337Z,102763.16
2023-04-16T21:28:06.278Z,102764.56
2023-04-16T21:30:32.964Z,102760.78
2023-04-16T21:32:59.624Z,102763.38
2023-04-16T21:35:26.042Z,102758.19
2023-04-16T21:37:52.646Z,102765.97
2023-04-16T21:40:19.067Z,102763.50
2023-04-16T21:42:45.502Z,102762.69
2023-04-16T21:45:12.022Z,102765.38
2023-04-16T21:47:38.602Z,102767.41
2023-04-16T21:50:05.783Z,102772.69
2023-04-16T21:52:32.858Z,102767.63
2023-04-16T21:55:00.519Z,102774.47
2023-04-16T21:57:27.072Z,102772.69
2023-04-16T21:59:53.651Z,102774.59
2023-04-16T22:02:20.339Z,102775.63
2023-04-16T22:04:47.338Z,102769.63
2023-04-16T22:07:13.782Z,102777.63
2023-04-16T22:09:40.842Z,102772.81
2023-04-16T22:12:10.172Z,102771.16
2023-04-16T22:14:37.117Z,102773.03
2023-04-16T22:17:04.364Z,102770.34
2023-04-16T22:19:30.796Z,102766.22
2023-04-16T22:21:57.285Z,102768.69
2023-04-16T22:24:23.993Z,102767.63
2023-04-16T22:26:50.500Z,102767.63
2023-04-16T22:29:16.899Z,102769.41
2023-04-16T22:31:43.279Z,102758.44
2023-04-16T22:34:09.795Z,102768.09
2023-04-16T22:36:36.169Z,102764.09
2023-04-16T22:39:02.687Z,102765.97
2023-04-16T22:41:29.157Z,102765.97
2023-04-16T22:43:55.521Z,102760.22
2023-04-16T22:46:24.545Z,102758.44
2023-04-16T22:48:51.137Z,102761.75
2023-04-16T22:51:17.525Z,102769.41
2023-04-16T22:53:43.990Z,102763.63
2023-04-16T22:56:10.724Z,102762.44
2023-04-16T22:58:37.232Z,102759.16
2023-04-16T23:01:03.714Z,102757.50
2023-04-16T23:03:30.864Z,102759.97
2023-04-16T23:05:57.388Z,102759.38
2023-04-16T23:08:23.873Z,102765.59
2023-04-16T23:10:50.372Z,102766.44
2023-04-16T23:13:17.289Z,102771.50
2023-04-16T23:15:43.733Z,102768.78
2023-04-16T23:18:10.355Z,102769.75
2023-04-16T23:20:36.776Z,102760.09
2023-04-16T23:23:03.179Z,102773.13
2023-04-16T23:25:29.551Z,102768.06
2023-04-16T23:27:56.639Z,102773.47
2023-04-16T23:30:23.088Z,102774.56
2023-04-16T23:32:49.507Z,102777.94
2023-04-16T23:35:22.577Z,102780.66
2023-04-16T23:37:49.877Z,102771.84
2023-04-16T23:40:16.492Z,102786.75
2023-04-16T23:42:43.072Z,102776.53
2023-04-16T23:45:09.951Z,102777.38
2023-04-16T23:47:36.403Z,102779.94
2023-04-16T23:50:03.019Z,102785.00
2023-04-16T23:52:29.437Z,102777.25
2023-04-16T23:54:55.902Z,102778.88
2023-04-16T23:57:22.278Z,102779.63
2023-04-16T23:59:48.652Z,102774.44
